Anton Chico, NM

7:56 PM MST on November 27, 2014 (GMT -0700)
Clines Corner | Change Station
CLOSE
Current Station
Airport
Location: Clines Corner,
Elevation: 7087 ft
Nearby Weather Stations

Elev 7087 ft 35.00 °N, 105.66 °W | Updated 3 minutes ago

Clear
Clear
37 °F
Feels Like 29 °F
N
12
Wind Variable Wind from WNW

Today
High -- | Low -- °F
--% Chance of Precip.
Yesterday
High -- | Low -- °F
Precip. -- in
6:46 AM 4:49 PM
Waxing Crescent, 35% visible
Pressure 30.34 in
Visibility 10.0 miles
Clouds Clear
Windchill 29 °F
Dew Point 18 °F
Humidity 46%
Rainfall 0.00 in
Snow Depth Not available.
UV 0 out of 12
Pollen 2.30 out of 12
Air Quality Not available.
Flu Activity Not available.
METAR KCQC 280253Z AUTO 30010KT 10SM CLR 03/M08 A3035 RMK AO2 SLP272 T00281078 50001

More Conditions Fewer Conditions

Pressure 30.34 in
Visibility 10.0 miles
Clouds Clear
Windchill 29 °F
Dew Point 18 °F
Humidity 46%
Rainfall 0.00 in
Snow Depth Not available.
UV 0 out of 12
Pollen 2.30 out of 12
Air Quality Not available.
Flu Activity Not available.
METAR KCQC 280253Z AUTO 30010KT 10SM CLR 03/M08 A3035 RMK AO2 SLP272 T00281078 50001

More Conditions Fewer Conditions

10-Day Weather Forecast

Almanac

Astronomy

Nov. 27, 2014 Rise Set
Actual Time
Civil Twilight
Nautical Twilight
Astronomical Twilight
Moon
Length of Visible Light
Length of Day
Tomorrow will be .
, % of the Moon is Illuminated

Today's Extremes

State Highs State Lows

Community

WunderPhotos

Upload Photos

1,774,164 photos uploaded!

WunderBlogs® & News

Nearby

Air Quality

  Air Quality AQ Index Pollutant
Not available.

Snow Depth

Station Depth Elevation

Earthquake Activity

City Distance Mag. Time & Date
Minimum magnitude displayed is 2.5.

Coastal Water Temperatures

Place Temperature

Nearby Weather Stations